sensor_id;sensor_type;location;lat;lon;timestamp;P1;P2;P0
55276;PMS5003;41136;51.478;-2.610;2023-06-14T00:02:19;21;19;
55276;PMS5003;41136;51.478;-2.610;2023-06-14T00:04:44;24;20;
55276;PMS5003;41136;51.478;-2.610;2023-06-14T00:07:10;21;20;
55276;PMS5003;41136;51.478;-2.610;2023-06-14T00:09:35;19;19;
55276;PMS5003;41136;51.478;-2.610;2023-06-14T00:12:01;17;17;
55276;PMS5003;41136;51.478;-2.610;2023-06-14T00:14:27;17;17;
55276;PMS5003;41136;51.478;-2.610;2023-06-14T00:16:52;19;19;
55276;PMS5003;41136;51.478;-2.610;2023-06-14T00:19:18;21;19;
55276;PMS5003;41136;51.478;-2.610;2023-06-14T00:21:44;24;21;
55276;PMS5003;41136;51.478;-2.610;2023-06-14T00:24:09;24;21;
55276;PMS5003;41136;51.478;-2.610;2023-06-14T00:28:14;23;19;
55276;PMS5003;41136;51.478;-2.610;2023-06-14T00:32:16;19;19;
55276;PMS5003;41136;51.478;-2.610;2023-06-14T00:34:42;26;22;
55276;PMS5003;41136;51.478;-2.610;2023-06-14T00:37:07;23;20;
55276;PMS5003;41136;51.478;-2.610;2023-06-14T00:39:33;24;23;
55276;PMS5003;41136;51.478;-2.610;2023-06-14T00:41:58;20;20;
55276;PMS5003;41136;51.478;-2.610;2023-06-14T00:44:23;19;14;
55276;PMS5003;41136;51.478;-2.610;2023-06-14T00:46:48;23;20;
55276;PMS5003;41136;51.478;-2.610;2023-06-14T00:49:14;19;17;
55276;PMS5003;41136;51.478;-2.610;2023-06-14T00:51:40;18;17;
55276;PMS5003;41136;51.478;-2.610;2023-06-14T00:54:06;19;18;
55276;PMS5003;41136;51.478;-2.610;2023-06-14T00:56:31;19;17;
55276;PMS5003;41136;51.478;-2.610;2023-06-14T00:58:57;19;19;
55276;PMS5003;41136;51.478;-2.610;2023-06-14T01:01:22;18;18;
55276;PMS5003;41136;51.478;-2.610;2023-06-14T01:03:47;19;18;
55276;PMS5003;41136;51.478;-2.610;2023-06-14T01:06:15;18;18;
55276;PMS5003;41136;51.478;-2.610;2023-06-14T01:08:40;17;17;
55276;PMS5003;41136;51.478;-2.610;2023-06-14T01:11:05;16;16;
55276;PMS5003;41136;51.478;-2.610;2023-06-14T01:13:32;22;21;
55276;PMS5003;41136;51.478;-2.610;2023-06-14T01:15:54;19;17;
55276;PMS5003;41136;51.478;-2.610;2023-06-14T01:18:20;21;18;
55276;PMS5003;41136;51.478;-2.610;2023-06-14T01:20:45;17;17;
55276;PMS5003;41136;51.478;-2.610;2023-06-14T01:23:10;18;14;
55276;PMS5003;41136;51.478;-2.610;2023-06-14T01:25:35;18;17;
55276;PMS5003;41136;51.478;-2.610;2023-06-14T01:28:01;17;15;
55276;PMS5003;41136;51.478;-2.610;2023-06-14T01:30:26;15;15;
55276;PMS5003;41136;51.478;-2.610;2023-06-14T01:32:52;18;18;
55276;PMS5003;41136;51.478;-2.610;2023-06-14T01:35:17;17;16;
55276;PMS5003;41136;51.478;-2.610;2023-06-14T01:37:42;19;16;
55276;PMS5003;41136;51.478;-2.610;2023-06-14T01:40:08;15;14;
55276;PMS5003;41136;51.478;-2.610;2023-06-14T01:42:33;21;19;
55276;PMS5003;41136;51.478;-2.610;2023-06-14T01:44:59;18;16;
55276;PMS5003;41136;51.478;-2.610;2023-06-14T01:47:24;18;15;
55276;PMS5003;41136;51.478;-2.610;2023-06-14T01:49:50;17;17;
55276;PMS5003;41136;51.478;-2.610;2023-06-14T01:52:15;16;16;
55276;PMS5003;41136;51.478;-2.610;2023-06-14T01:54:41;16;15;
55276;PMS5003;41136;51.478;-2.610;2023-06-14T01:57:06;16;16;
55276;PMS5003;41136;51.478;-2.610;2023-06-14T01:59:31;15;14;
55276;PMS5003;41136;51.478;-2.610;2023-06-14T02:01:57;12;12;
55276;PMS5003;41136;51.478;-2.610;2023-06-14T02:04:22;15;14;
55276;PMS5003;41136;51.478;-2.610;2023-06-14T02:06:48;15;15;
55276;PMS5003;41136;51.478;-2.610;2023-06-14T02:09:14;16;14;
55276;PMS5003;41136;51.478;-2.610;2023-06-14T02:11:39;16;15;
55276;PMS5003;41136;51.478;-2.610;2023-06-14T02:14:05;13;13;
55276;PMS5003;41136;51.478;-2.610;2023-06-14T02:16:30;15;15;
55276;PMS5003;41136;51.478;-2.610;2023-06-14T02:18:55;15;14;
55276;PMS5003;41136;51.478;-2.610;2023-06-14T02:21:21;16;14;
55276;PMS5003;41136;51.478;-2.610;2023-06-14T02:23:46;18;16;
55276;PMS5003;41136;51.478;-2.610;2023-06-14T02:26:11;14;11;
55276;PMS5003;41136;51.478;-2.610;2023-06-14T02:28:37;15;15;
55276;PMS5003;41136;51.478;-2.610;2023-06-14T02:31:03;13;12;
55276;PMS5003;41136;51.478;-2.610;2023-06-14T02:33:28;16;14;
55276;PMS5003;41136;51.478;-2.610;2023-06-14T02:35:54;13;13;
55276;PMS5003;41136;51.478;-2.610;2023-06-14T02:38:19;14;13;
55276;PMS5003;41136;51.478;-2.610;2023-06-14T02:40:45;13;11;
55276;PMS5003;41136;51.478;-2.610;2023-06-14T02:43:10;15;15;
55276;PMS5003;41136;51.478;-2.610;2023-06-14T02:45:36;12;12;
55276;PMS5003;41136;51.478;-2.610;2023-06-14T02:48:02;11;10;
55276;PMS5003;41136;51.478;-2.610;2023-06-14T02:50:28;13;13;
55276;PMS5003;41136;51.478;-2.610;2023-06-14T02:52:53;17;12;
55276;PMS5003;41136;51.478;-2.610;2023-06-14T02:55:18;15;13;
55276;PMS5003;41136;51.478;-2.610;2023-06-14T02:57:44;14;14;
55276;PMS5003;41136;51.478;-2.610;2023-06-14T03:00:09;18;17;
55276;PMS5003;41136;51.478;-2.610;2023-06-14T03:02:34;19;19;
55276;PMS5003;41136;51.478;-2.610;2023-06-14T03:05:00;18;17;
55276;PMS5003;41136;51.478;-2.610;2023-06-14T03:07:26;18;18;
55276;PMS5003;41136;51.478;-2.610;2023-06-14T03:09:51;17;17;
55276;PMS5003;41136;51.478;-2.610;2023-06-14T03:12:17;17;17;
55276;PMS5003;41136;51.478;-2.610;2023-06-14T03:14:42;22;21;
55276;PMS5003;41136;51.478;-2.610;2023-06-14T03:17:08;24;22;
55276;PMS5003;41136;51.478;-2.610;2023-06-14T03:19:33;23;20;
55276;PMS5003;41136;51.478;-2.610;2023-06-14T03:21:59;22;21;
55276;PMS5003;41136;51.478;-2.610;2023-06-14T03:24:24;20;19;
55276;PMS5003;41136;51.478;-2.610;2023-06-14T03:26:50;22;19;
55276;PMS5003;41136;51.478;-2.610;2023-06-14T03:29:15;21;21;
55276;PMS5003;41136;51.478;-2.610;2023-06-14T03:32:57;23;23;
55276;PMS5003;41136;51.478;-2.610;2023-06-14T03:35:22;19;17;
55276;PMS5003;41136;51.478;-2.610;2023-06-14T03:37:47;24;20;
55276;PMS5003;41136;51.478;-2.610;2023-06-14T03:40:14;19;18;
55276;PMS5003;41136;51.478;-2.610;2023-06-14T03:42:38;19;16;
55276;PMS5003;41136;51.478;-2.610;2023-06-14T03:45:05;16;16;
55276;PMS5003;41136;51.478;-2.610;2023-06-14T03:47:29;19;17;
55276;PMS5003;41136;51.478;-2.610;2023-06-14T03:49:55;19;18;
55276;PMS5003;41136;51.478;-2.610;2023-06-14T03:52:20;17;17;
55276;PMS5003;41136;51.478;-2.610;2023-06-14T03:54:45;16;15;
55276;PMS5003;41136;51.478;-2.610;2023-06-14T03:57:11;15;14;
55276;PMS5003;41136;51.478;-2.610;2023-06-14T03:59:36;14;14;
55276;PMS5003;41136;51.478;-2.610;2023-06-14T04:02:01;14;13;
55276;PMS5003;41136;51.478;-2.610;2023-06-14T04:04:27;15;13;
55276;PMS5003;41136;51.478;-2.610;2023-06-14T04:06:52;13;13;
55276;PMS5003;41136;51.478;-2.610;2023-06-14T04:09:17;15;14;
55276;PMS5003;41136;51.478;-2.610;2023-06-14T04:11:43;14;14;
55276;PMS5003;41136;51.478;-2.610;2023-06-14T04:14:08;18;14;
55276;PMS5003;41136;51.478;-2.610;2023-06-14T04:16:33;15;12;
55276;PMS5003;41136;51.478;-2.610;2023-06-14T04:18:58;13;13;
55276;PMS5003;41136;51.478;-2.610;2023-06-14T04:21:24;14;12;
55276;PMS5003;41136;51.478;-2.610;2023-06-14T04:23:49;13;13;
55276;PMS5003;41136;51.478;-2.610;2023-06-14T04:26:15;16;14;
55276;PMS5003;41136;51.478;-2.610;2023-06-14T04:28:39;13;13;
55276;PMS5003;41136;51.478;-2.610;2023-06-14T04:31:04;11;11;
55276;PMS5003;41136;51.478;-2.610;2023-06-14T04:33:30;20;13;
55276;PMS5003;41136;51.478;-2.610;2023-06-14T04:35:55;12;10;
55276;PMS5003;41136;51.478;-2.610;2023-06-14T04:38:20;10;9;
55276;PMS5003;41136;51.478;-2.610;2023-06-14T04:40:45;10;10;
55276;PMS5003;41136;51.478;-2.610;2023-06-14T04:43:11;8;8;
55276;PMS5003;41136;51.478;-2.610;2023-06-14T04:45:36;10;10;
55276;PMS5003;41136;51.478;-2.610;2023-06-14T04:48:02;12;11;
55276;PMS5003;41136;51.478;-2.610;2023-06-14T04:50:27;9;9;
55276;PMS5003;41136;51.478;-2.610;2023-06-14T04:52:52;15;11;
55276;PMS5003;41136;51.478;-2.610;2023-06-14T04:55:18;10;9;
55276;PMS5003;41136;51.478;-2.610;2023-06-14T04:57:43;12;12;
55276;PMS5003;41136;51.478;-2.610;2023-06-14T05:00:09;11;9;
55276;PMS5003;41136;51.478;-2.610;2023-06-14T05:02:34;11;10;
55276;PMS5003;41136;51.478;-2.610;2023-06-14T05:04:59;10;10;
55276;PMS5003;41136;51.478;-2.610;2023-06-14T05:07:24;8;8;
55276;PMS5003;41136;51.478;-2.610;2023-06-14T05:09:50;14;11;
55276;PMS5003;41136;51.478;-2.610;2023-06-14T05:12:15;9;9;
55276;PMS5003;41136;51.478;-2.610;2023-06-14T05:14:41;10;10;
55276;PMS5003;41136;51.478;-2.610;2023-06-14T05:17:06;11;11;
55276;PMS5003;41136;51.478;-2.610;2023-06-14T05:19:31;14;13;
55276;PMS5003;41136;51.478;-2.610;2023-06-14T05:21:57;12;10;
55276;PMS5003;41136;51.478;-2.610;2023-06-14T05:24:22;12;12;
55276;PMS5003;41136;51.478;-2.610;2023-06-14T05:26:47;11;11;
55276;PMS5003;41136;51.478;-2.610;2023-06-14T05:29:13;15;13;
55276;PMS5003;41136;51.478;-2.610;2023-06-14T05:31:38;11;10;
55276;PMS5003;41136;51.478;-2.610;2023-06-14T05:34:03;12;12;
55276;PMS5003;41136;51.478;-2.610;2023-06-14T05:36:29;12;10;
55276;PMS5003;41136;51.478;-2.610;2023-06-14T05:38:54;13;11;
55276;PMS5003;41136;51.478;-2.610;2023-06-14T05:41:19;10;9;
55276;PMS5003;41136;51.478;-2.610;2023-06-14T05:43:44;11;10;
55276;PMS5003;41136;51.478;-2.610;2023-06-14T05:46:09;12;11;
55276;PMS5003;41136;51.478;-2.610;2023-06-14T05:48:34;12;12;
55276;PMS5003;41136;51.478;-2.610;2023-06-14T05:51:00;12;10;
55276;PMS5003;41136;51.478;-2.610;2023-06-14T05:53:25;14;12;
55276;PMS5003;41136;51.478;-2.610;2023-06-14T05:55:50;10;10;
55276;PMS5003;41136;51.478;-2.610;2023-06-14T05:58:16;10;10;
55276;PMS5003;41136;51.478;-2.610;2023-06-14T06:00:41;11;10;
55276;PMS5003;41136;51.478;-2.610;2023-06-14T06:03:06;9;9;
55276;PMS5003;41136;51.478;-2.610;2023-06-14T06:05:31;13;11;
55276;PMS5003;41136;51.478;-2.610;2023-06-14T06:07:56;12;11;
55276;PMS5003;41136;51.478;-2.610;2023-06-14T06:10:22;11;9;
55276;PMS5003;41136;51.478;-2.610;2023-06-14T06:12:47;8;8;
55276;PMS5003;41136;51.478;-2.610;2023-06-14T06:15:12;10;9;
55276;PMS5003;41136;51.478;-2.610;2023-06-14T06:17:37;13;12;
55276;PMS5003;41136;51.478;-2.610;2023-06-14T06:20:03;12;12;
55276;PMS5003;41136;51.478;-2.610;2023-06-14T06:22:28;10;10;
55276;PMS5003;41136;51.478;-2.610;2023-06-14T06:24:53;11;11;
55276;PMS5003;41136;51.478;-2.610;2023-06-14T06:27:19;14;12;
55276;PMS5003;41136;51.478;-2.610;2023-06-14T06:29:44;11;10;
55276;PMS5003;41136;51.478;-2.610;2023-06-14T06:32:09;9;9;
55276;PMS5003;41136;51.478;-2.610;2023-06-14T06:34:34;9;9;
55276;PMS5003;41136;51.478;-2.610;2023-06-14T06:36:59;12;11;
55276;PMS5003;41136;51.478;-2.610;2023-06-14T06:39:24;9;9;
55276;PMS5003;41136;51.478;-2.610;2023-06-14T06:41:50;11;11;
55276;PMS5003;41136;51.478;-2.610;2023-06-14T06:44:15;8;8;
55276;PMS5003;41136;51.478;-2.610;2023-06-14T06:46:41;12;10;
55276;PMS5003;41136;51.478;-2.610;2023-06-14T06:49:06;10;10;
55276;PMS5003;41136;51.478;-2.610;2023-06-14T06:51:32;13;13;
55276;PMS5003;41136;51.478;-2.610;2023-06-14T06:53:57;10;10;
55276;PMS5003;41136;51.478;-2.610;2023-06-14T06:56:23;13;12;
55276;PMS5003;41136;51.478;-2.610;2023-06-14T06:58:48;11;11;
55276;PMS5003;41136;51.478;-2.610;2023-06-14T07:01:13;10;8;
55276;PMS5003;41136;51.478;-2.610;2023-06-14T07:03:39;11;10;
55276;PMS5003;41136;51.478;-2.610;2023-06-14T07:06:04;10;10;
55276;PMS5003;41136;51.478;-2.610;2023-06-14T07:08:29;11;11;
55276;PMS5003;41136;51.478;-2.610;2023-06-14T07:10:55;10;10;
55276;PMS5003;41136;51.478;-2.610;2023-06-14T07:13:20;10;8;
55276;PMS5003;41136;51.478;-2.610;2023-06-14T07:15:46;14;11;
55276;PMS5003;41136;51.478;-2.610;2023-06-14T07:18:11;11;11;
55276;PMS5003;41136;51.478;-2.610;2023-06-14T07:20:36;15;14;
55276;PMS5003;41136;51.478;-2.610;2023-06-14T07:23:02;16;14;
55276;PMS5003;41136;51.478;-2.610;2023-06-14T07:25:27;13;13;
55276;PMS5003;41136;51.478;-2.610;2023-06-14T07:27:53;10;10;
55276;PMS5003;41136;51.478;-2.610;2023-06-14T07:30:18;16;13;
55276;PMS5003;41136;51.478;-2.610;2023-06-14T07:32:44;12;11;
55276;PMS5003;41136;51.478;-2.610;2023-06-14T07:35:09;13;9;
55276;PMS5003;41136;51.478;-2.610;2023-06-14T07:37:34;10;10;
55276;PMS5003;41136;51.478;-2.610;2023-06-14T07:40:00;12;11;
55276;PMS5003;41136;51.478;-2.610;2023-06-14T07:42:25;12;12;
55276;PMS5003;41136;51.478;-2.610;2023-06-14T07:44:51;10;10;
55276;PMS5003;41136;51.478;-2.610;2023-06-14T07:47:16;14;13;
55276;PMS5003;41136;51.478;-2.610;2023-06-14T07:49:42;10;8;
55276;PMS5003;41136;51.478;-2.610;2023-06-14T07:52:07;11;11;
55276;PMS5003;41136;51.478;-2.610;2023-06-14T07:54:33;16;14;
55276;PMS5003;41136;51.478;-2.610;2023-06-14T07:56:59;12;11;
55276;PMS5003;41136;51.478;-2.610;2023-06-14T07:59:24;11;11;
55276;PMS5003;41136;51.478;-2.610;2023-06-14T08:01:50;13;13;
55276;PMS5003;41136;51.478;-2.610;2023-06-14T08:04:15;13;13;
55276;PMS5003;41136;51.478;-2.610;2023-06-14T08:06:41;16;15;
55276;PMS5003;41136;51.478;-2.610;2023-06-14T08:09:06;14;12;
55276;PMS5003;41136;51.478;-2.610;2023-06-14T08:11:32;19;17;
55276;PMS5003;41136;51.478;-2.610;2023-06-14T08:13:57;12;10;
55276;PMS5003;41136;51.478;-2.610;2023-06-14T08:16:22;16;14;
55276;PMS5003;41136;51.478;-2.610;2023-06-14T08:18:48;12;12;
55276;PMS5003;41136;51.478;-2.610;2023-06-14T08:21:14;14;14;
55276;PMS5003;41136;51.478;-2.610;2023-06-14T08:23:39;16;12;
55276;PMS5003;41136;51.478;-2.610;2023-06-14T08:26:05;17;16;
55276;PMS5003;41136;51.478;-2.610;2023-06-14T08:28:31;15;13;
55276;PMS5003;41136;51.478;-2.610;2023-06-14T08:30:57;16;16;
55276;PMS5003;41136;51.478;-2.610;2023-06-14T08:33:22;15;10;
55276;PMS5003;41136;51.478;-2.610;2023-06-14T08:35:47;11;11;
55276;PMS5003;41136;51.478;-2.610;2023-06-14T08:38:12;13;12;
55276;PMS5003;41136;51.478;-2.610;2023-06-14T08:40:38;12;12;
55276;PMS5003;41136;51.478;-2.610;2023-06-14T08:43:03;17;15;
55276;PMS5003;41136;51.478;-2.610;2023-06-14T08:45:29;18;15;
55276;PMS5003;41136;51.478;-2.610;2023-06-14T08:47:54;12;12;
55276;PMS5003;41136;51.478;-2.610;2023-06-14T08:50:20;14;14;
55276;PMS5003;41136;51.478;-2.610;2023-06-14T08:52:45;16;16;
55276;PMS5003;41136;51.478;-2.610;2023-06-14T08:55:10;16;14;
55276;PMS5003;41136;51.478;-2.610;2023-06-14T08:57:35;15;15;
55276;PMS5003;41136;51.478;-2.610;2023-06-14T09:00:01;18;16;
55276;PMS5003;41136;51.478;-2.610;2023-06-14T09:02:26;14;14;
55276;PMS5003;41136;51.478;-2.610;2023-06-14T09:04:52;19;15;
55276;PMS5003;41136;51.478;-2.610;2023-06-14T09:07:18;16;16;
55276;PMS5003;41136;51.478;-2.610;2023-06-14T09:09:43;18;15;
55276;PMS5003;41136;51.478;-2.610;2023-06-14T09:12:10;15;15;
55276;PMS5003;41136;51.478;-2.610;2023-06-14T09:14:34;18;15;
55276;PMS5003;41136;51.478;-2.610;2023-06-14T09:16:59;15;15;
55276;PMS5003;41136;51.478;-2.610;2023-06-14T09:19:25;15;15;
55276;PMS5003;41136;51.478;-2.610;2023-06-14T09:21:50;16;16;
55276;PMS5003;41136;51.478;-2.610;2023-06-14T09:24:15;16;16;
55276;PMS5003;41136;51.478;-2.610;2023-06-14T09:26:41;17;16;
55276;PMS5003;41136;51.478;-2.610;2023-06-14T09:29:07;18;16;
55276;PMS5003;41136;51.478;-2.610;2023-06-14T09:31:32;19;16;
55276;PMS5003;41136;51.478;-2.610;2023-06-14T09:33:59;14;12;
55276;PMS5003;41136;51.478;-2.610;2023-06-14T09:36:24;12;12;
55276;PMS5003;41136;51.478;-2.610;2023-06-14T09:38:53;14;14;
55276;PMS5003;41136;51.478;-2.610;2023-06-14T09:41:15;16;15;
55276;PMS5003;41136;51.478;-2.610;2023-06-14T09:43:41;15;15;
55276;PMS5003;41136;51.478;-2.610;2023-06-14T09:46:07;17;17;
55276;PMS5003;41136;51.478;-2.610;2023-06-14T09:48:32;16;16;
55276;PMS5003;41136;51.478;-2.610;2023-06-14T09:50:57;13;12;
55276;PMS5003;41136;51.478;-2.610;2023-06-14T09:53:22;12;12;
55276;PMS5003;41136;51.478;-2.610;2023-06-14T09:55:48;13;12;
55276;PMS5003;41136;51.478;-2.610;2023-06-14T09:58:13;17;14;
55276;PMS5003;41136;51.478;-2.610;2023-06-14T10:00:38;18;15;
55276;PMS5003;41136;51.478;-2.610;2023-06-14T10:03:06;14;14;
55276;PMS5003;41136;51.478;-2.610;2023-06-14T10:05:29;13;11;
55276;PMS5003;41136;51.478;-2.610;2023-06-14T10:07:56;14;14;
55276;PMS5003;41136;51.478;-2.610;2023-06-14T10:10:21;10;10;
55276;PMS5003;41136;51.478;-2.610;2023-06-14T10:12:46;13;11;
55276;PMS5003;41136;51.478;-2.610;2023-06-14T10:15:14;10;10;
55276;PMS5003;41136;51.478;-2.610;2023-06-14T10:17:39;13;12;
55276;PMS5003;41136;51.478;-2.610;2023-06-14T10:20:10;15;13;
55276;PMS5003;41136;51.478;-2.610;2023-06-14T10:22:29;13;11;
55276;PMS5003;41136;51.478;-2.610;2023-06-14T10:24:53;18;13;
55276;PMS5003;41136;51.478;-2.610;2023-06-14T10:27:18;12;12;
55276;PMS5003;41136;51.478;-2.610;2023-06-14T10:32:09;15;13;
55276;PMS5003;41136;51.478;-2.610;2023-06-14T10:34:38;15;13;
55276;PMS5003;41136;51.478;-2.610;2023-06-14T10:37:00;16;13;
55276;PMS5003;41136;51.478;-2.610;2023-06-14T10:39:25;12;11;
55276;PMS5003;41136;51.478;-2.610;2023-06-14T10:41:51;10;10;
55276;PMS5003;41136;51.478;-2.610;2023-06-14T10:46:43;10;10;
55276;PMS5003;41136;51.478;-2.610;2023-06-14T10:49:06;13;13;
55276;PMS5003;41136;51.478;-2.610;2023-06-14T10:53:58;11;11;
55276;PMS5003;41136;51.478;-2.610;2023-06-14T10:56:23;12;10;
55276;PMS5003;41136;51.478;-2.610;2023-06-14T10:58:48;12;11;
55276;PMS5003;41136;51.478;-2.610;2023-06-14T11:01:13;11;11;
55276;PMS5003;41136;51.478;-2.610;2023-06-14T11:06:11;14;13;
55276;PMS5003;41136;51.478;-2.610;2023-06-14T11:08:46;10;10;
55276;PMS5003;41136;51.478;-2.610;2023-06-14T11:10:56;9;9;
55276;PMS5003;41136;51.478;-2.610;2023-06-14T11:13:20;10;10;
55276;PMS5003;41136;51.478;-2.610;2023-06-14T11:15:47;10;10;
55276;PMS5003;41136;51.478;-2.610;2023-06-14T11:18:11;11;10;
55276;PMS5003;41136;51.478;-2.610;2023-06-14T11:20:36;11;10;
55276;PMS5003;41136;51.478;-2.610;2023-06-14T11:23:02;13;11;
55276;PMS5003;41136;51.478;-2.610;2023-06-14T11:25:26;11;11;
55276;PMS5003;41136;51.478;-2.610;2023-06-14T11:27:52;13;13;
55276;PMS5003;41136;51.478;-2.610;2023-06-14T11:30:17;13;12;
55276;PMS5003;41136;51.478;-2.610;2023-06-14T11:32:45;12;11;
55276;PMS5003;41136;51.478;-2.610;2023-06-14T11:35:08;12;12;
55276;PMS5003;41136;51.478;-2.610;2023-06-14T11:37:33;15;14;
55276;PMS5003;41136;51.478;-2.610;2023-06-14T11:39:58;11;11;
55276;PMS5003;41136;51.478;-2.610;2023-06-14T11:42:24;12;10;
55276;PMS5003;41136;51.478;-2.610;2023-06-14T11:44:49;13;13;
55276;PMS5003;41136;51.478;-2.610;2023-06-14T11:47:14;16;14;
55276;PMS5003;41136;51.478;-2.610;2023-06-14T11:49:40;12;12;
55276;PMS5003;41136;51.478;-2.610;2023-06-14T11:52:05;11;11;
55276;PMS5003;41136;51.478;-2.610;2023-06-14T11:54:31;11;11;
55276;PMS5003;41136;51.478;-2.610;2023-06-14T11:56:56;14;12;
55276;PMS5003;41136;51.478;-2.610;2023-06-14T11:59:22;14;11;
55276;PMS5003;41136;51.478;-2.610;2023-06-14T12:01:47;10;10;
55276;PMS5003;41136;51.478;-2.610;2023-06-14T12:04:13;12;11;
55276;PMS5003;41136;51.478;-2.610;2023-06-14T12:06:39;13;13;
55276;PMS5003;41136;51.478;-2.610;2023-06-14T12:09:04;13;13;
55276;PMS5003;41136;51.478;-2.610;2023-06-14T12:11:31;13;12;
55276;PMS5003;41136;51.478;-2.610;2023-06-14T12:13:56;14;11;
55276;PMS5003;41136;51.478;-2.610;2023-06-14T12:16:20;16;14;
55276;PMS5003;41136;51.478;-2.610;2023-06-14T12:18:45;11;11;
55276;PMS5003;41136;51.478;-2.610;2023-06-14T12:21:11;14;14;
55276;PMS5003;41136;51.478;-2.610;2023-06-14T12:26:02;13;11;
55276;PMS5003;41136;51.478;-2.610;2023-06-14T12:28:28;11;11;
55276;PMS5003;41136;51.478;-2.610;2023-06-14T12:30:52;11;11;
55276;PMS5003;41136;51.478;-2.610;2023-06-14T12:33:18;17;16;
55276;PMS5003;41136;51.478;-2.610;2023-06-14T12:35:43;14;12;
55276;PMS5003;41136;51.478;-2.610;2023-06-14T12:38:09;15;14;
55276;PMS5003;41136;51.478;-2.610;2023-06-14T12:40:34;13;11;
55276;PMS5003;41136;51.478;-2.610;2023-06-14T12:42:59;15;14;
55276;PMS5003;41136;51.478;-2.610;2023-06-14T12:45:24;10;10;
55276;PMS5003;41136;51.478;-2.610;2023-06-14T12:47:50;12;12;
55276;PMS5003;41136;51.478;-2.610;2023-06-14T12:50:15;18;16;
55276;PMS5003;41136;51.478;-2.610;2023-06-14T12:52:40;16;15;
55276;PMS5003;41136;51.478;-2.610;2023-06-14T12:55:06;13;13;
55276;PMS5003;41136;51.478;-2.610;2023-06-14T12:57:31;13;11;
55276;PMS5003;41136;51.478;-2.610;2023-06-14T12:59:57;16;14;
55276;PMS5003;41136;51.478;-2.610;2023-06-14T13:02:22;16;13;
55276;PMS5003;41136;51.478;-2.610;2023-06-14T13:04:48;17;15;
55276;PMS5003;41136;51.478;-2.610;2023-06-14T13:07:13;14;14;
55276;PMS5003;41136;51.478;-2.610;2023-06-14T13:09:39;10;10;
55276;PMS5003;41136;51.478;-2.610;2023-06-14T13:12:04;13;12;
55276;PMS5003;41136;51.478;-2.610;2023-06-14T13:14:30;14;13;
55276;PMS5003;41136;51.478;-2.610;2023-06-14T13:16:55;17;15;
55276;PMS5003;41136;51.478;-2.610;2023-06-14T13:19:20;19;15;
55276;PMS5003;41136;51.478;-2.610;2023-06-14T13:21:46;16;14;
55276;PMS5003;41136;51.478;-2.610;2023-06-14T13:24:11;11;11;
55276;PMS5003;41136;51.478;-2.610;2023-06-14T13:26:36;12;12;
55276;PMS5003;41136;51.478;-2.610;2023-06-14T13:29:01;12;12;
55276;PMS5003;41136;51.478;-2.610;2023-06-14T13:31:27;14;13;
55276;PMS5003;41136;51.478;-2.610;2023-06-14T13:33:52;10;10;
55276;PMS5003;41136;51.478;-2.610;2023-06-14T13:36:17;15;14;
55276;PMS5003;41136;51.478;-2.610;2023-06-14T13:38:42;14;12;
55276;PMS5003;41136;51.478;-2.610;2023-06-14T13:41:08;12;12;
55276;PMS5003;41136;51.478;-2.610;2023-06-14T13:43:33;13;13;
55276;PMS5003;41136;51.478;-2.610;2023-06-14T13:45:59;14;13;
55276;PMS5003;41136;51.478;-2.610;2023-06-14T13:48:24;12;12;
55276;PMS5003;41136;51.478;-2.610;2023-06-14T13:50:49;13;13;
55276;PMS5003;41136;51.478;-2.610;2023-06-14T13:53:14;12;12;
55276;PMS5003;41136;51.478;-2.610;2023-06-14T13:55:40;12;12;
55276;PMS5003;41136;51.478;-2.610;2023-06-14T13:58:05;16;15;
55276;PMS5003;41136;51.478;-2.610;2023-06-14T14:00:31;12;12;
55276;PMS5003;41136;51.478;-2.610;2023-06-14T14:02:56;14;14;
55276;PMS5003;41136;51.478;-2.610;2023-06-14T14:05:21;15;14;
55276;PMS5003;41136;51.478;-2.610;2023-06-14T14:07:47;15;15;
55276;PMS5003;41136;51.478;-2.610;2023-06-14T14:10:12;16;14;
55276;PMS5003;41136;51.478;-2.610;2023-06-14T14:12:38;11;11;
55276;PMS5003;41136;51.478;-2.610;2023-06-14T14:15:04;13;13;
55276;PMS5003;41136;51.478;-2.610;2023-06-14T14:17:29;13;12;
55276;PMS5003;41136;51.478;-2.610;2023-06-14T14:19:54;15;15;
55276;PMS5003;41136;51.478;-2.610;2023-06-14T14:22:19;14;14;
55276;PMS5003;41136;51.478;-2.610;2023-06-14T14:24:44;15;14;
55276;PMS5003;41136;51.478;-2.610;2023-06-14T14:27:10;15;14;
55276;PMS5003;41136;51.478;-2.610;2023-06-14T14:29:35;19;16;
55276;PMS5003;41136;51.478;-2.610;2023-06-14T14:32:01;17;16;
55276;PMS5003;41136;51.478;-2.610;2023-06-14T14:34:27;14;14;
55276;PMS5003;41136;51.478;-2.610;2023-06-14T14:36:53;16;16;
55276;PMS5003;41136;51.478;-2.610;2023-06-14T14:39:18;17;15;
55276;PMS5003;41136;51.478;-2.610;2023-06-14T14:41:43;14;14;
55276;PMS5003;41136;51.478;-2.610;2023-06-14T14:44:09;15;15;
55276;PMS5003;41136;51.478;-2.610;2023-06-14T14:46:35;16;15;
55276;PMS5003;41136;51.478;-2.610;2023-06-14T14:49:00;12;12;
55276;PMS5003;41136;51.478;-2.610;2023-06-14T14:51:26;21;19;
55276;PMS5003;41136;51.478;-2.610;2023-06-14T14:53:51;16;14;
55276;PMS5003;41136;51.478;-2.610;2023-06-14T14:56:17;18;18;
55276;PMS5003;41136;51.478;-2.610;2023-06-14T14:58:42;19;15;
55276;PMS5003;41136;51.478;-2.610;2023-06-14T15:01:07;14;13;
55276;PMS5003;41136;51.478;-2.610;2023-06-14T15:03:32;17;17;
55276;PMS5003;41136;51.478;-2.610;2023-06-14T15:05:58;16;16;
55276;PMS5003;41136;51.478;-2.610;2023-06-14T15:08:23;14;13;
55276;PMS5003;41136;51.478;-2.610;2023-06-14T15:10:49;15;15;
55276;PMS5003;41136;51.478;-2.610;2023-06-14T15:13:15;15;15;
55276;PMS5003;41136;51.478;-2.610;2023-06-14T15:15:41;18;18;
55276;PMS5003;41136;51.478;-2.610;2023-06-14T15:18:06;17;17;
55276;PMS5003;41136;51.478;-2.610;2023-06-14T15:20:32;15;13;
55276;PMS5003;41136;51.478;-2.610;2023-06-14T15:22:57;17;15;
55276;PMS5003;41136;51.478;-2.610;2023-06-14T15:25:23;17;17;
55276;PMS5003;41136;51.478;-2.610;2023-06-14T15:27:48;18;17;
55276;PMS5003;41136;51.478;-2.610;2023-06-14T15:30:13;16;16;
55276;PMS5003;41136;51.478;-2.610;2023-06-14T15:32:39;19;18;
55276;PMS5003;41136;51.478;-2.610;2023-06-14T15:35:05;16;16;
55276;PMS5003;41136;51.478;-2.610;2023-06-14T15:37:31;16;16;
55276;PMS5003;41136;51.478;-2.610;2023-06-14T15:39:56;19;19;
55276;PMS5003;41136;51.478;-2.610;2023-06-14T15:42:21;16;16;
55276;PMS5003;41136;51.478;-2.610;2023-06-14T15:44:47;17;14;
55276;PMS5003;41136;51.478;-2.610;2023-06-14T15:47:12;18;16;
55276;PMS5003;41136;51.478;-2.610;2023-06-14T15:49:38;15;15;
55276;PMS5003;41136;51.478;-2.610;2023-06-14T15:52:03;18;17;
55276;PMS5003;41136;51.478;-2.610;2023-06-14T15:54:29;20;19;
55276;PMS5003;41136;51.478;-2.610;2023-06-14T15:56:54;21;21;
55276;PMS5003;41136;51.478;-2.610;2023-06-14T15:59:20;20;17;
55276;PMS5003;41136;51.478;-2.610;2023-06-14T16:01:46;17;17;
55276;PMS5003;41136;51.478;-2.610;2023-06-14T16:04:11;17;17;
55276;PMS5003;41136;51.478;-2.610;2023-06-14T16:06:36;17;17;
55276;PMS5003;41136;51.478;-2.610;2023-06-14T16:09:02;20;20;